sensor_id;sensor_type;location;lat;lon;timestamp;temperature;humidity
9849;DHT22;4963;51.444;6.528;2022-07-05T00:00:15;19.40;99.90
9849;DHT22;4963;51.444;6.528;2022-07-05T00:02:42;19.40;99.90
9849;DHT22;4963;51.444;6.528;2022-07-05T00:05:09;19.40;99.90
9849;DHT22;4963;51.444;6.528;2022-07-05T00:07:36;19.40;99.90
9849;DHT22;4963;51.444;6.528;2022-07-05T00:10:03;19.40;99.90
9849;DHT22;4963;51.444;6.528;2022-07-05T00:12:32;19.40;99.90
9849;DHT22;4963;51.444;6.528;2022-07-05T00:14:59;19.40;99.90
9849;DHT22;4963;51.444;6.528;2022-07-05T00:17:26;19.40;99.90
9849;DHT22;4963;51.444;6.528;2022-07-05T00:19:53;19.40;99.90
9849;DHT22;4963;51.444;6.528;2022-07-05T00:22:20;19.40;99.90
9849;DHT22;4963;51.444;6.528;2022-07-05T00:24:47;19.40;99.90
9849;DHT22;4963;51.444;6.528;2022-07-05T00:27:16;19.50;99.90
9849;DHT22;4963;51.444;6.528;2022-07-05T00:29:44;19.50;99.90
9849;DHT22;4963;51.444;6.528;2022-07-05T00:32:11;19.50;99.90
9849;DHT22;4963;51.444;6.528;2022-07-05T00:34:38;19.40;99.90
9849;DHT22;4963;51.444;6.528;2022-07-05T00:37:04;19.40;99.90
9849;DHT22;4963;51.444;6.528;2022-07-05T00:39:31;19.30;99.90
9849;DHT22;4963;51.444;6.528;2022-07-05T00:41:58;19.30;99.90
9849;DHT22;4963;51.444;6.528;2022-07-05T00:44:30;19.20;99.90
9849;DHT22;4963;51.444;6.528;2022-07-05T00:46:59;19.30;99.90
9849;DHT22;4963;51.444;6.528;2022-07-05T00:49:26;19.20;99.90
9849;DHT22;4963;51.444;6.528;2022-07-05T00:51:53;19.20;99.90
9849;DHT22;4963;51.444;6.528;2022-07-05T00:54:20;19.10;99.90
9849;DHT22;4963;51.444;6.528;2022-07-05T00:56:47;19.10;99.90
9849;DHT22;4963;51.444;6.528;2022-07-05T00:59:14;19.10;99.90
9849;DHT22;4963;51.444;6.528;2022-07-05T01:01:41;19.10;99.90
9849;DHT22;4963;51.444;6.528;2022-07-05T01:04:10;19.10;99.90
9849;DHT22;4963;51.444;6.528;2022-07-05T01:06:37;19.20;99.90
9849;DHT22;4963;51.444;6.528;2022-07-05T01:09:05;19.20;99.90
9849;DHT22;4963;51.444;6.528;2022-07-05T01:11:32;19.20;99.90
9849;DHT22;4963;51.444;6.528;2022-07-05T01:13:59;19.10;99.90
9849;DHT22;4963;51.444;6.528;2022-07-05T01:16:26;19.00;99.90
9849;DHT22;4963;51.444;6.528;2022-07-05T01:18:53;19.00;99.90
9849;DHT22;4963;51.444;6.528;2022-07-05T01:21:23;19.00;99.90
9849;DHT22;4963;51.444;6.528;2022-07-05T01:23:53;19.00;99.90
9849;DHT22;4963;51.444;6.528;2022-07-05T01:26:20;19.00;99.90
9849;DHT22;4963;51.444;6.528;2022-07-05T01:28:47;18.90;99.90
9849;DHT22;4963;51.444;6.528;2022-07-05T01:31:14;19.00;99.90
9849;DHT22;4963;51.444;6.528;2022-07-05T01:33:41;19.00;99.90
9849;DHT22;4963;51.444;6.528;2022-07-05T01:36:10;19.00;99.90
9849;DHT22;4963;51.444;6.528;2022-07-05T01:38:38;18.90;99.90
9849;DHT22;4963;51.444;6.528;2022-07-05T01:41:08;18.90;99.90
9849;DHT22;4963;51.444;6.528;2022-07-05T01:43:35;18.90;99.90
9849;DHT22;4963;51.444;6.528;2022-07-05T01:46:05;18.90;99.90
9849;DHT22;4963;51.444;6.528;2022-07-05T01:48:33;18.90;99.90
9849;DHT22;4963;51.444;6.528;2022-07-05T01:51:04;18.80;99.90
9849;DHT22;4963;51.444;6.528;2022-07-05T01:53:32;18.80;99.90
9849;DHT22;4963;51.444;6.528;2022-07-05T01:56:00;18.70;99.90
9849;DHT22;4963;51.444;6.528;2022-07-05T01:58:29;18.80;99.90
9849;DHT22;4963;51.444;6.528;2022-07-05T02:00:58;18.80;99.90
9849;DHT22;4963;51.444;6.528;2022-07-05T02:03:26;18.80;99.90
9849;DHT22;4963;51.444;6.528;2022-07-05T02:05:53;18.80;99.90
9849;DHT22;4963;51.444;6.528;2022-07-05T02:08:20;18.70;99.90
9849;DHT22;4963;51.444;6.528;2022-07-05T02:10:47;18.60;99.90
9849;DHT22;4963;51.444;6.528;2022-07-05T02:13:14;18.60;99.90
9849;DHT22;4963;51.444;6.528;2022-07-05T02:15:42;18.60;99.90
9849;DHT22;4963;51.444;6.528;2022-07-05T02:18:09;18.60;99.90
9849;DHT22;4963;51.444;6.528;2022-07-05T02:20:39;18.60;99.90
9849;DHT22;4963;51.444;6.528;2022-07-05T02:23:07;18.60;99.90
9849;DHT22;4963;51.444;6.528;2022-07-05T02:25:34;18.50;99.90
9849;DHT22;4963;51.444;6.528;2022-07-05T02:28:01;18.50;99.90
9849;DHT22;4963;51.444;6.528;2022-07-05T02:30:28;18.50;99.90
9849;DHT22;4963;51.444;6.528;2022-07-05T02:32:57;18.50;99.90
9849;DHT22;4963;51.444;6.528;2022-07-05T02:35:23;18.40;99.90
9849;DHT22;4963;51.444;6.528;2022-07-05T02:37:50;18.40;99.90
9849;DHT22;4963;51.444;6.528;2022-07-05T02:40:17;18.50;99.90
9849;DHT22;4963;51.444;6.528;2022-07-05T02:42:44;18.40;99.90
9849;DHT22;4963;51.444;6.528;2022-07-05T02:45:11;18.40;99.90
9849;DHT22;4963;51.444;6.528;2022-07-05T02:47:38;18.40;99.90
9849;DHT22;4963;51.444;6.528;2022-07-05T02:50:07;18.30;99.90
9849;DHT22;4963;51.444;6.528;2022-07-05T02:52:35;18.30;99.90
9849;DHT22;4963;51.444;6.528;2022-07-05T02:55:03;18.20;99.90
9849;DHT22;4963;51.444;6.528;2022-07-05T02:57:30;18.30;99.90
9849;DHT22;4963;51.444;6.528;2022-07-05T02:59:57;18.30;99.90
9849;DHT22;4963;51.444;6.528;2022-07-05T03:02:24;18.30;99.90
9849;DHT22;4963;51.444;6.528;2022-07-05T03:04:51;18.20;99.90
9849;DHT22;4963;51.444;6.528;2022-07-05T03:07:19;18.20;99.90
9849;DHT22;4963;51.444;6.528;2022-07-05T03:09:46;18.20;99.90
9849;DHT22;4963;51.444;6.528;2022-07-05T03:12:13;18.10;99.90
9849;DHT22;4963;51.444;6.528;2022-07-05T03:14:40;18.10;99.90
9849;DHT22;4963;51.444;6.528;2022-07-05T03:17:07;18.00;99.90
9849;DHT22;4963;51.444;6.528;2022-07-05T03:19:34;18.00;99.90
9849;DHT22;4963;51.444;6.528;2022-07-05T03:22:00;17.90;99.90
9849;DHT22;4963;51.444;6.528;2022-07-05T03:24:28;17.80;99.90
9849;DHT22;4963;51.444;6.528;2022-07-05T03:26:55;17.80;99.90
9849;DHT22;4963;51.444;6.528;2022-07-05T03:29:22;17.70;99.90
9849;DHT22;4963;51.444;6.528;2022-07-05T03:31:49;17.70;99.90
9849;DHT22;4963;51.444;6.528;2022-07-05T03:34:16;17.60;99.90
9849;DHT22;4963;51.444;6.528;2022-07-05T03:36:42;17.60;99.90
9849;DHT22;4963;51.444;6.528;2022-07-05T03:39:09;17.60;99.90
9849;DHT22;4963;51.444;6.528;2022-07-05T03:41:37;17.50;99.90
9849;DHT22;4963;51.444;6.528;2022-07-05T03:44:04;17.50;99.90
9849;DHT22;4963;51.444;6.528;2022-07-05T03:46:31;17.40;99.90
9849;DHT22;4963;51.444;6.528;2022-07-05T03:48:58;17.40;99.90
9849;DHT22;4963;51.444;6.528;2022-07-05T03:51:25;17.40;99.90
9849;DHT22;4963;51.444;6.528;2022-07-05T03:53:51;17.30;99.90
9849;DHT22;4963;51.444;6.528;2022-07-05T03:56:18;17.30;99.90
9849;DHT22;4963;51.444;6.528;2022-07-05T03:58:50;17.30;99.90
9849;DHT22;4963;51.444;6.528;2022-07-05T04:01:16;17.30;99.90
9849;DHT22;4963;51.444;6.528;2022-07-05T04:03:43;17.30;99.90
9849;DHT22;4963;51.444;6.528;2022-07-05T04:06:10;17.20;99.90
9849;DHT22;4963;51.444;6.528;2022-07-05T04:08:38;17.20;99.90
9849;DHT22;4963;51.444;6.528;2022-07-05T04:11:05;17.30;99.90
9849;DHT22;4963;51.444;6.528;2022-07-05T04:13:33;17.30;99.90
9849;DHT22;4963;51.444;6.528;2022-07-05T04:16:01;17.30;99.90
9849;DHT22;4963;51.444;6.528;2022-07-05T04:18:28;17.30;99.90
9849;DHT22;4963;51.444;6.528;2022-07-05T04:20:55;17.30;99.90
9849;DHT22;4963;51.444;6.528;2022-07-05T04:23:22;17.40;99.90
9849;DHT22;4963;51.444;6.528;2022-07-05T04:25:48;17.30;99.90
9849;DHT22;4963;51.444;6.528;2022-07-05T04:28:15;17.40;99.90
9849;DHT22;4963;51.444;6.528;2022-07-05T04:30:42;17.40;99.90
9849;DHT22;4963;51.444;6.528;2022-07-05T04:33:10;17.40;99.90
9849;DHT22;4963;51.444;6.528;2022-07-05T04:35:37;17.50;99.90
9849;DHT22;4963;51.444;6.528;2022-07-05T04:38:04;17.50;99.90
9849;DHT22;4963;51.444;6.528;2022-07-05T04:40:31;17.50;99.90
9849;DHT22;4963;51.444;6.528;2022-07-05T04:42:58;17.50;99.90
9849;DHT22;4963;51.444;6.528;2022-07-05T04:45:24;17.60;99.90
9849;DHT22;4963;51.444;6.528;2022-07-05T04:47:51;17.60;99.90
9849;DHT22;4963;51.444;6.528;2022-07-05T04:50:20;17.70;99.90
9849;DHT22;4963;51.444;6.528;2022-07-05T04:52:46;17.70;99.90
9849;DHT22;4963;51.444;6.528;2022-07-05T04:55:13;17.70;99.90
9849;DHT22;4963;51.444;6.528;2022-07-05T04:57:41;17.70;99.90
9849;DHT22;4963;51.444;6.528;2022-07-05T05:00:10;17.80;99.90
9849;DHT22;4963;51.444;6.528;2022-07-05T05:02:37;17.90;99.90
9849;DHT22;4963;51.444;6.528;2022-07-05T05:05:05;17.90;99.90
9849;DHT22;4963;51.444;6.528;2022-07-05T05:07:34;18.00;99.90
9849;DHT22;4963;51.444;6.528;2022-07-05T05:10:03;18.00;99.90
9849;DHT22;4963;51.444;6.528;2022-07-05T05:12:30;18.10;99.90
9849;DHT22;4963;51.444;6.528;2022-07-05T05:14:57;18.10;99.90
9849;DHT22;4963;51.444;6.528;2022-07-05T05:17:24;18.20;99.90
9849;DHT22;4963;51.444;6.528;2022-07-05T05:19:52;18.30;99.90
9849;DHT22;4963;51.444;6.528;2022-07-05T05:22:18;18.40;99.90
9849;DHT22;4963;51.444;6.528;2022-07-05T05:24:47;18.60;99.90
9849;DHT22;4963;51.444;6.528;2022-07-05T05:27:13;18.80;99.90
9849;DHT22;4963;51.444;6.528;2022-07-05T05:29:40;18.90;99.90
9849;DHT22;4963;51.444;6.528;2022-07-05T05:32:07;19.00;99.90
9849;DHT22;4963;51.444;6.528;2022-07-05T05:34:34;19.00;99.90
9849;DHT22;4963;51.444;6.528;2022-07-05T05:37:01;19.10;99.90
9849;DHT22;4963;51.444;6.528;2022-07-05T05:39:27;19.10;99.90
9849;DHT22;4963;51.444;6.528;2022-07-05T05:41:56;19.20;99.90
9849;DHT22;4963;51.444;6.528;2022-07-05T05:44:23;19.40;99.90
9849;DHT22;4963;51.444;6.528;2022-07-05T05:46:49;19.50;99.90
9849;DHT22;4963;51.444;6.528;2022-07-05T05:49:16;19.70;99.90
9849;DHT22;4963;51.444;6.528;2022-07-05T05:51:43;19.70;99.90
9849;DHT22;4963;51.444;6.528;2022-07-05T05:54:10;19.80;99.90
9849;DHT22;4963;51.444;6.528;2022-07-05T05:56:37;20.00;99.90
9849;DHT22;4963;51.444;6.528;2022-07-05T05:59:06;20.40;99.90
9849;DHT22;4963;51.444;6.528;2022-07-05T06:01:34;20.90;99.90
9849;DHT22;4963;51.444;6.528;2022-07-05T06:04:00;21.50;99.90
9849;DHT22;4963;51.444;6.528;2022-07-05T06:06:28;22.10;98.30
9849;DHT22;4963;51.444;6.528;2022-07-05T06:08:55;22.10;96.50
9849;DHT22;4963;51.444;6.528;2022-07-05T06:11:21;21.90;97.00
9849;DHT22;4963;51.444;6.528;2022-07-05T06:13:48;21.90;97.30
9849;DHT22;4963;51.444;6.528;2022-07-05T06:16:16;21.90;97.50
9849;DHT22;4963;51.444;6.528;2022-07-05T06:18:43;22.20;96.60
9849;DHT22;4963;51.444;6.528;2022-07-05T06:21:10;22.40;96.60
9849;DHT22;4963;51.444;6.528;2022-07-05T06:23:37;22.90;96.60
9849;DHT22;4963;51.444;6.528;2022-07-05T06:26:03;23.10;95.10
9849;DHT22;4963;51.444;6.528;2022-07-05T06:28:30;23.50;93.60
9849;DHT22;4963;51.444;6.528;2022-07-05T06:30:58;23.80;93.90
9849;DHT22;4963;51.444;6.528;2022-07-05T06:33:26;24.10;93.20
9849;DHT22;4963;51.444;6.528;2022-07-05T06:35:53;24.20;93.00
9849;DHT22;4963;51.444;6.528;2022-07-05T06:38:20;24.20;93.00
9849;DHT22;4963;51.444;6.528;2022-07-05T06:40:47;24.10;93.00
9849;DHT22;4963;51.444;6.528;2022-07-05T06:43:14;24.00;93.30
9849;DHT22;4963;51.444;6.528;2022-07-05T06:45:41;23.70;93.30
9849;DHT22;4963;51.444;6.528;2022-07-05T06:48:09;23.40;93.60
9849;DHT22;4963;51.444;6.528;2022-07-05T06:50:38;23.10;94.00
9849;DHT22;4963;51.444;6.528;2022-07-05T06:53:06;23.00;94.60
9849;DHT22;4963;51.444;6.528;2022-07-05T06:55:33;23.00;94.90
9849;DHT22;4963;51.444;6.528;2022-07-05T06:58:03;22.90;95.00
9849;DHT22;4963;51.444;6.528;2022-07-05T07:00:31;22.80;95.30
9849;DHT22;4963;51.444;6.528;2022-07-05T07:02:58;22.90;95.20
9849;DHT22;4963;51.444;6.528;2022-07-05T07:05:26;22.90;95.30
9849;DHT22;4963;51.444;6.528;2022-07-05T07:07:54;22.80;95.30
9849;DHT22;4963;51.444;6.528;2022-07-05T07:10:38;22.70;95.10
9849;DHT22;4963;51.444;6.528;2022-07-05T07:13:05;22.70;95.40
9849;DHT22;4963;51.444;6.528;2022-07-05T07:15:33;22.60;95.50
9849;DHT22;4963;51.444;6.528;2022-07-05T07:17:59;22.70;96.40
9849;DHT22;4963;51.444;6.528;2022-07-05T07:20:27;22.90;94.90
9849;DHT22;4963;51.444;6.528;2022-07-05T07:22:55;22.90;94.20
9849;DHT22;4963;51.444;6.528;2022-07-05T07:25:22;22.90;94.40
9849;DHT22;4963;51.444;6.528;2022-07-05T07:27:52;23.00;93.90
9849;DHT22;4963;51.444;6.528;2022-07-05T07:30:21;23.10;93.60
9849;DHT22;4963;51.444;6.528;2022-07-05T07:32:48;23.20;93.90
9849;DHT22;4963;51.444;6.528;2022-07-05T07:35:15;23.40;93.30
9849;DHT22;4963;51.444;6.528;2022-07-05T07:37:42;23.70;93.00
9849;DHT22;4963;51.444;6.528;2022-07-05T07:40:10;23.90;93.10
9849;DHT22;4963;51.444;6.528;2022-07-05T07:42:38;24.00;92.50
9849;DHT22;4963;51.444;6.528;2022-07-05T07:45:05;24.10;92.60
9849;DHT22;4963;51.444;6.528;2022-07-05T07:47:33;24.10;91.60
9849;DHT22;4963;51.444;6.528;2022-07-05T07:50:00;24.00;92.20
9849;DHT22;4963;51.444;6.528;2022-07-05T07:52:27;24.00;91.90
9849;DHT22;4963;51.444;6.528;2022-07-05T07:54:56;24.10;92.30
9849;DHT22;4963;51.444;6.528;2022-07-05T07:57:24;24.30;91.70
9849;DHT22;4963;51.444;6.528;2022-07-05T07:59:51;24.20;92.00
9849;DHT22;4963;51.444;6.528;2022-07-05T08:02:17;24.30;92.30
9849;DHT22;4963;51.444;6.528;2022-07-05T08:04:46;24.30;91.70
9849;DHT22;4963;51.444;6.528;2022-07-05T08:07:13;24.40;91.10
9849;DHT22;4963;51.444;6.528;2022-07-05T08:09:40;24.50;90.80
9849;DHT22;4963;51.444;6.528;2022-07-05T08:12:08;24.50;90.30
9849;DHT22;4963;51.444;6.528;2022-07-05T08:14:36;24.50;89.50
9849;DHT22;4963;51.444;6.528;2022-07-05T08:17:03;24.50;88.90
9849;DHT22;4963;51.444;6.528;2022-07-05T08:19:33;24.50;89.20
9849;DHT22;4963;51.444;6.528;2022-07-05T08:22:17;24.50;90.30
9849;DHT22;4963;51.444;6.528;2022-07-05T08:24:45;24.60;90.20
9849;DHT22;4963;51.444;6.528;2022-07-05T08:27:12;24.60;90.10
9849;DHT22;4963;51.444;6.528;2022-07-05T08:29:40;24.50;89.10
9849;DHT22;4963;51.444;6.528;2022-07-05T08:32:08;24.40;90.10
9849;DHT22;4963;51.444;6.528;2022-07-05T08:34:36;24.40;90.40
9849;DHT22;4963;51.444;6.528;2022-07-05T08:37:03;24.50;90.70
9849;DHT22;4963;51.444;6.528;2022-07-05T08:39:30;24.60;90.80
9849;DHT22;4963;51.444;6.528;2022-07-05T08:41:58;24.80;89.40
9849;DHT22;4963;51.444;6.528;2022-07-05T08:44:27;25.00;90.40
9849;DHT22;4963;51.444;6.528;2022-07-05T08:46:57;25.30;89.60
9849;DHT22;4963;51.444;6.528;2022-07-05T08:49:25;25.40;89.80
9849;DHT22;4963;51.444;6.528;2022-07-05T08:51:53;25.60;87.80
9849;DHT22;4963;51.444;6.528;2022-07-05T08:54:22;25.80;88.70
9849;DHT22;4963;51.444;6.528;2022-07-05T08:56:50;26.10;89.00
9849;DHT22;4963;51.444;6.528;2022-07-05T08:59:17;26.40;87.20
9849;DHT22;4963;51.444;6.528;2022-07-05T09:01:45;26.80;85.40
9849;DHT22;4963;51.444;6.528;2022-07-05T09:04:16;27.00;83.20
9849;DHT22;4963;51.444;6.528;2022-07-05T09:06:47;27.20;84.00
9849;DHT22;4963;51.444;6.528;2022-07-05T09:09:17;27.30;83.70
9849;DHT22;4963;51.444;6.528;2022-07-05T09:11:45;27.50;81.80
9849;DHT22;4963;51.444;6.528;2022-07-05T09:14:20;27.00;80.30
9849;DHT22;4963;51.444;6.528;2022-07-05T09:16:47;26.70;82.60
9849;DHT22;4963;51.444;6.528;2022-07-05T09:19:18;26.60;83.10
9849;DHT22;4963;51.444;6.528;2022-07-05T09:21:45;26.50;82.20
9849;DHT22;4963;51.444;6.528;2022-07-05T09:24:13;26.60;82.30
9849;DHT22;4963;51.444;6.528;2022-07-05T09:26:42;26.70;82.90
9849;DHT22;4963;51.444;6.528;2022-07-05T09:29:11;26.70;80.70
9849;DHT22;4963;51.444;6.528;2022-07-05T09:31:40;26.30;80.50
9849;DHT22;4963;51.444;6.528;2022-07-05T09:34:08;26.10;82.40
9849;DHT22;4963;51.444;6.528;2022-07-05T09:36:50;26.10;82.80
9849;DHT22;4963;51.444;6.528;2022-07-05T09:39:17;26.20;81.30
9849;DHT22;4963;51.444;6.528;2022-07-05T09:41:44;26.40;80.60
9849;DHT22;4963;51.444;6.528;2022-07-05T09:44:23;26.30;81.20
9849;DHT22;4963;51.444;6.528;2022-07-05T09:46:50;26.50;81.70
9849;DHT22;4963;51.444;6.528;2022-07-05T09:49:25;26.60;82.30
9849;DHT22;4963;51.444;6.528;2022-07-05T09:51:53;26.70;83.40
9849;DHT22;4963;51.444;6.528;2022-07-05T09:54:21;26.90;81.80
9849;DHT22;4963;51.444;6.528;2022-07-05T09:56:48;26.80;81.50
9849;DHT22;4963;51.444;6.528;2022-07-05T09:59:16;26.70;80.90
9849;DHT22;4963;51.444;6.528;2022-07-05T10:01:44;26.40;81.60
9849;DHT22;4963;51.444;6.528;2022-07-05T10:04:11;26.30;83.10
9849;DHT22;4963;51.444;6.528;2022-07-05T10:06:38;26.10;83.40
9849;DHT22;4963;51.444;6.528;2022-07-05T10:09:08;25.80;82.70
9849;DHT22;4963;51.444;6.528;2022-07-05T10:11:39;25.60;84.40
9849;DHT22;4963;51.444;6.528;2022-07-05T10:14:11;25.40;84.60
9849;DHT22;4963;51.444;6.528;2022-07-05T10:16:38;25.30;86.00
9849;DHT22;4963;51.444;6.528;2022-07-05T10:19:09;25.40;86.10
9849;DHT22;4963;51.444;6.528;2022-07-05T10:21:37;25.50;86.10
9849;DHT22;4963;51.444;6.528;2022-07-05T10:24:07;25.70;86.00
9849;DHT22;4963;51.444;6.528;2022-07-05T10:26:34;25.80;84.70
9849;DHT22;4963;51.444;6.528;2022-07-05T10:29:02;25.80;82.20
9849;DHT22;4963;51.444;6.528;2022-07-05T10:31:29;25.60;83.00
9849;DHT22;4963;51.444;6.528;2022-07-05T10:33:57;25.70;80.70
9849;DHT22;4963;51.444;6.528;2022-07-05T10:36:26;25.70;81.70
9849;DHT22;4963;51.444;6.528;2022-07-05T10:38:53;25.70;82.50
9849;DHT22;4963;51.444;6.528;2022-07-05T10:41:23;25.60;81.90
9849;DHT22;4963;51.444;6.528;2022-07-05T10:43:53;25.50;81.80
9849;DHT22;4963;51.444;6.528;2022-07-05T10:46:33;25.50;80.90
9849;DHT22;4963;51.444;6.528;2022-07-05T10:49:13;25.80;80.20
9849;DHT22;4963;51.444;6.528;2022-07-05T10:51:41;26.00;80.70
9849;DHT22;4963;51.444;6.528;2022-07-05T10:54:08;26.00;80.10
9849;DHT22;4963;51.444;6.528;2022-07-05T10:56:36;26.20;79.10
9849;DHT22;4963;51.444;6.528;2022-07-05T10:59:05;26.40;77.60
9849;DHT22;4963;51.444;6.528;2022-07-05T11:01:36;26.40;78.20
9849;DHT22;4963;51.444;6.528;2022-07-05T11:04:27;26.60;77.30
9849;DHT22;4963;51.444;6.528;2022-07-05T11:06:56;26.70;76.70
9849;DHT22;4963;51.444;6.528;2022-07-05T11:09:23;26.90;77.90
9849;DHT22;4963;51.444;6.528;2022-07-05T11:14:45;27.30;76.60
9849;DHT22;4963;51.444;6.528;2022-07-05T11:17:18;27.20;77.70
9849;DHT22;4963;51.444;6.528;2022-07-05T11:20:03;27.30;76.10
9849;DHT22;4963;51.444;6.528;2022-07-05T11:22:30;27.30;74.10
9849;DHT22;4963;51.444;6.528;2022-07-05T11:24:57;27.30;75.00
9849;DHT22;4963;51.444;6.528;2022-07-05T11:27:26;27.40;76.70
9849;DHT22;4963;51.444;6.528;2022-07-05T11:29:54;27.60;76.30
9849;DHT22;4963;51.444;6.528;2022-07-05T11:32:22;27.70;74.90
9849;DHT22;4963;51.444;6.528;2022-07-05T11:34:53;27.60;73.70
9849;DHT22;4963;51.444;6.528;2022-07-05T11:37:21;27.50;74.90
9849;DHT22;4963;51.444;6.528;2022-07-05T11:42:57;27.20;74.90
9849;DHT22;4963;51.444;6.528;2022-07-05T11:45:24;27.10;75.30
9849;DHT22;4963;51.444;6.528;2022-07-05T11:47:53;27.00;75.40
9849;DHT22;4963;51.444;6.528;2022-07-05T11:50:26;26.90;73.30
9849;DHT22;4963;51.444;6.528;2022-07-05T11:52:54;26.90;71.20
9849;DHT22;4963;51.444;6.528;2022-07-05T11:55:21;26.80;73.00
9849;DHT22;4963;51.444;6.528;2022-07-05T11:57:52;26.80;74.30
9849;DHT22;4963;51.444;6.528;2022-07-05T12:00:28;26.70;73.70
9849;DHT22;4963;51.444;6.528;2022-07-05T12:02:55;26.80;75.50
9849;DHT22;4963;51.444;6.528;2022-07-05T12:05:23;26.80;75.80
9849;DHT22;4963;51.444;6.528;2022-07-05T12:07:50;26.90;76.40
9849;DHT22;4963;51.444;6.528;2022-07-05T12:10:18;27.00;75.40
9849;DHT22;4963;51.444;6.528;2022-07-05T12:13:04;27.00;76.00
9849;DHT22;4963;51.444;6.528;2022-07-05T12:15:33;27.20;76.40
9849;DHT22;4963;51.444;6.528;2022-07-05T12:18:01;27.30;75.00
9849;DHT22;4963;51.444;6.528;2022-07-05T12:20:30;27.20;75.60
9849;DHT22;4963;51.444;6.528;2022-07-05T12:22:57;27.10;75.20
9849;DHT22;4963;51.444;6.528;2022-07-05T12:25:26;27.10;75.30
9849;DHT22;4963;51.444;6.528;2022-07-05T12:27:55;27.20;74.00
9849;DHT22;4963;51.444;6.528;2022-07-05T12:30:22;27.10;73.80
9849;DHT22;4963;51.444;6.528;2022-07-05T12:33:09;27.10;76.40
9849;DHT22;4963;51.444;6.528;2022-07-05T12:35:39;27.30;74.30
9849;DHT22;4963;51.444;6.528;2022-07-05T12:38:08;27.10;73.90
9849;DHT22;4963;51.444;6.528;2022-07-05T12:40:35;27.00;76.20
9849;DHT22;4963;51.444;6.528;2022-07-05T12:43:06;27.00;74.50
9849;DHT22;4963;51.444;6.528;2022-07-05T12:45:33;26.90;75.20
9849;DHT22;4963;51.444;6.528;2022-07-05T12:48:02;26.90;75.10
9849;DHT22;4963;51.444;6.528;2022-07-05T12:50:45;26.90;75.30
9849;DHT22;4963;51.444;6.528;2022-07-05T12:53:13;26.90;75.80
9849;DHT22;4963;51.444;6.528;2022-07-05T12:56:01;27.10;76.20
9849;DHT22;4963;51.444;6.528;2022-07-05T12:58:47;27.00;77.10
9849;DHT22;4963;51.444;6.528;2022-07-05T13:01:19;27.00;76.80
9849;DHT22;4963;51.444;6.528;2022-07-05T13:03:59;26.80;76.60
9849;DHT22;4963;51.444;6.528;2022-07-05T13:06:45;26.70;77.00
9849;DHT22;4963;51.444;6.528;2022-07-05T13:09:14;26.80;76.30
9849;DHT22;4963;51.444;6.528;2022-07-05T13:11:42;26.80;77.20
9849;DHT22;4963;51.444;6.528;2022-07-05T13:14:09;26.80;78.30
9849;DHT22;4963;51.444;6.528;2022-07-05T13:16:36;26.70;77.10
9849;DHT22;4963;51.444;6.528;2022-07-05T13:19:07;26.70;77.60
9849;DHT22;4963;51.444;6.528;2022-07-05T13:21:34;26.80;78.30
9849;DHT22;4963;51.444;6.528;2022-07-05T13:24:03;26.80;78.10
9849;DHT22;4963;51.444;6.528;2022-07-05T13:26:30;26.80;77.70
9849;DHT22;4963;51.444;6.528;2022-07-05T13:28:57;26.70;77.80
9849;DHT22;4963;51.444;6.528;2022-07-05T13:31:24;26.50;77.70
9849;DHT22;4963;51.444;6.528;2022-07-05T13:33:54;26.40;79.00
9849;DHT22;4963;51.444;6.528;2022-07-05T13:36:21;26.20;78.20
9849;DHT22;4963;51.444;6.528;2022-07-05T13:38:48;26.00;79.60
9849;DHT22;4963;51.444;6.528;2022-07-05T13:41:16;25.80;79.50
9849;DHT22;4963;51.444;6.528;2022-07-05T13:43:43;25.70;81.00
9849;DHT22;4963;51.444;6.528;2022-07-05T13:46:10;25.60;80.80
9849;DHT22;4963;51.444;6.528;2022-07-05T13:48:37;25.40;81.80
9849;DHT22;4963;51.444;6.528;2022-07-05T13:51:04;25.20;83.30
9849;DHT22;4963;51.444;6.528;2022-07-05T13:53:31;25.10;84.20
9849;DHT22;4963;51.444;6.528;2022-07-05T13:55:57;25.00;84.10
9849;DHT22;4963;51.444;6.528;2022-07-05T13:58:26;24.90;84.50
9849;DHT22;4963;51.444;6.528;2022-07-05T14:00:53;24.90;84.90
9849;DHT22;4963;51.444;6.528;2022-07-05T14:03:20;24.90;84.70
9849;DHT22;4963;51.444;6.528;2022-07-05T14:05:47;25.10;84.20
9849;DHT22;4963;51.444;6.528;2022-07-05T14:08:15;25.30;84.70
9849;DHT22;4963;51.444;6.528;2022-07-05T14:10:47;25.40;84.30
9849;DHT22;4963;51.444;6.528;2022-07-05T14:13:15;25.50;82.10
9849;DHT22;4963;51.444;6.528;2022-07-05T14:15:44;25.40;83.00
9849;DHT22;4963;51.444;6.528;2022-07-05T14:18:13;25.50;83.50
9849;DHT22;4963;51.444;6.528;2022-07-05T14:20:39;25.60;82.30
9849;DHT22;4963;51.444;6.528;2022-07-05T14:23:06;25.60;82.20
9849;DHT22;4963;51.444;6.528;2022-07-05T14:25:34;25.70;83.30
9849;DHT22;4963;51.444;6.528;2022-07-05T14:28:00;25.70;83.50
9849;DHT22;4963;51.444;6.528;2022-07-05T14:30:28;25.70;82.30
9849;DHT22;4963;51.444;6.528;2022-07-05T14:32:56;25.60;81.60
9849;DHT22;4963;51.444;6.528;2022-07-05T14:35:23;25.60;82.70
9849;DHT22;4963;51.444;6.528;2022-07-05T14:37:50;25.60;83.20
9849;DHT22;4963;51.444;6.528;2022-07-05T14:40:17;25.70;83.10
9849;DHT22;4963;51.444;6.528;2022-07-05T14:42:44;25.60;82.50
9849;DHT22;4963;51.444;6.528;2022-07-05T14:45:11;25.60;82.90
9849;DHT22;4963;51.444;6.528;2022-07-05T14:47:38;25.60;83.20
9849;DHT22;4963;51.444;6.528;2022-07-05T14:50:06;25.50;82.40
9849;DHT22;4963;51.444;6.528;2022-07-05T14:52:33;25.30;82.50
9849;DHT22;4963;51.444;6.528;2022-07-05T14:55:00;25.10;83.20
9849;DHT22;4963;51.444;6.528;2022-07-05T14:57:27;25.00;83.70
9849;DHT22;4963;51.444;6.528;2022-07-05T14:59:54;24.90;84.80
9849;DHT22;4963;51.444;6.528;2022-07-05T15:02:20;24.80;83.80
9849;DHT22;4963;51.444;6.528;2022-07-05T15:04:47;24.70;83.70
9849;DHT22;4963;51.444;6.528;2022-07-05T15:07:16;24.60;84.40
9849;DHT22;4963;51.444;6.528;2022-07-05T15:09:42;24.60;84.50
9849;DHT22;4963;51.444;6.528;2022-07-05T15:12:09;24.50;84.60
9849;DHT22;4963;51.444;6.528;2022-07-05T15:14:36;24.40;84.90
9849;DHT22;4963;51.444;6.528;2022-07-05T15:17:03;24.40;84.90
9849;DHT22;4963;51.444;6.528;2022-07-05T15:19:30;24.40;85.20
9849;DHT22;4963;51.444;6.528;2022-07-05T15:21:57;24.40;84.10
9849;DHT22;4963;51.444;6.528;2022-07-05T15:24:25;24.30;84.40
9849;DHT22;4963;51.444;6.528;2022-07-05T15:26:52;24.20;84.90
9849;DHT22;4963;51.444;6.528;2022-07-05T15:29:19;24.20;85.30
9849;DHT22;4963;51.444;6.528;2022-07-05T15:31:46;24.20;85.00
9849;DHT22;4963;51.444;6.528;2022-07-05T15:34:13;24.20;84.80
9849;DHT22;4963;51.444;6.528;2022-07-05T15:36:39;24.20;85.00
9849;DHT22;4963;51.444;6.528;2022-07-05T15:39:06;24.30;86.70
9849;DHT22;4963;51.444;6.528;2022-07-05T15:41:34;24.40;85.60
9849;DHT22;4963;51.444;6.528;2022-07-05T15:44:01;24.40;86.30
9849;DHT22;4963;51.444;6.528;2022-07-05T15:46:29;24.40;86.40
9849;DHT22;4963;51.444;6.528;2022-07-05T15:49:16;24.40;85.80
9849;DHT22;4963;51.444;6.528;2022-07-05T15:51:43;24.40;85.00
9849;DHT22;4963;51.444;6.528;2022-07-05T15:54:10;24.40;85.20
9849;DHT22;4963;51.444;6.528;2022-07-05T15:56:38;24.30;85.10
9849;DHT22;4963;51.444;6.528;2022-07-05T15:59:06;24.30;84.10
9849;DHT22;4963;51.444;6.528;2022-07-05T16:01:33;24.20;85.10
9849;DHT22;4963;51.444;6.528;2022-07-05T16:04:00;24.10;84.80
9849;DHT22;4963;51.444;6.528;2022-07-05T16:06:27;24.00;85.10
9849;DHT22;4963;51.444;6.528;2022-07-05T16:08:53;24.00;86.10
9849;DHT22;4963;51.444;6.528;2022-07-05T16:11:20;24.00;85.80
9849;DHT22;4963;51.444;6.528;2022-07-05T16:13:48;24.00;86.00